sensor_id;sensor_type;location;lat;lon;timestamp;P1;durP1;ratioP1;P2;durP2;ratioP2
15788;SDS011;59075;50.670;6.474;2022-09-30T05:02:14;440.03;;;392.50;;
15788;SDS011;59075;50.670;6.474;2022-09-30T05:04:41;437.70;;;389.97;;
15788;SDS011;59075;50.670;6.474;2022-09-30T05:07:07;436.80;;;389.10;;
15788;SDS011;59075;50.670;6.474;2022-09-30T05:09:34;432.20;;;384.90;;
15788;SDS011;59075;50.670;6.474;2022-09-30T05:12:01;451.13;;;403.07;;
15788;SDS011;59075;50.670;6.474;2022-09-30T05:14:28;434.70;;;387.03;;
15788;SDS011;59075;50.670;6.474;2022-09-30T05:16:54;437.13;;;389.50;;
15788;SDS011;59075;50.670;6.474;2022-09-30T05:19:22;441.37;;;393.80;;
15788;SDS011;59075;50.670;6.474;2022-09-30T05:21:49;438.70;;;391.17;;
15788;SDS011;59075;50.670;6.474;2022-09-30T05:24:17;436.40;;;388.87;;
15788;SDS011;59075;50.670;6.474;2022-09-30T05:26:43;430.87;;;383.40;;
15788;SDS011;59075;50.670;6.474;2022-09-30T05:29:10;443.77;;;396.07;;
15788;SDS011;59075;50.670;6.474;2022-09-30T05:31:37;434.90;;;387.30;;
15788;SDS011;59075;50.670;6.474;2022-09-30T05:34:03;441.63;;;394.03;;
15788;SDS011;59075;50.670;6.474;2022-09-30T05:36:31;443.90;;;396.13;;
15788;SDS011;59075;50.670;6.474;2022-09-30T05:38:58;445.03;;;397.20;;
15788;SDS011;59075;50.670;6.474;2022-09-30T05:41:25;441.50;;;393.83;;
15788;SDS011;59075;50.670;6.474;2022-09-30T05:43:51;442.03;;;394.30;;
15788;SDS011;59075;50.670;6.474;2022-09-30T05:46:18;443.57;;;394.90;;
15788;SDS011;59075;50.670;6.474;2022-09-30T05:48:45;435.23;;;387.70;;
15788;SDS011;59075;50.670;6.474;2022-09-30T05:51:12;443.50;;;395.70;;
15788;SDS011;59075;50.670;6.474;2022-09-30T05:53:40;436.77;;;389.13;;
15788;SDS011;59075;50.670;6.474;2022-09-30T05:56:08;442.10;;;393.63;;
15788;SDS011;59075;50.670;6.474;2022-09-30T05:58:35;429.33;;;381.10;;
15788;SDS011;59075;50.670;6.474;2022-09-30T06:01:04;439.33;;;391.50;;
15788;SDS011;59075;50.670;6.474;2022-09-30T06:03:33;439.07;;;391.33;;
15788;SDS011;59075;50.670;6.474;2022-09-30T06:06:00;437.27;;;389.50;;
15788;SDS011;59075;50.670;6.474;2022-09-30T06:08:27;427.77;;;378.63;;
15788;SDS011;59075;50.670;6.474;2022-09-30T06:10:56;436.70;;;388.93;;
15788;SDS011;59075;50.670;6.474;2022-09-30T06:13:23;429.07;;;380.73;;
15788;SDS011;59075;50.670;6.474;2022-09-30T06:15:54;433.23;;;385.60;;
15788;SDS011;59075;50.670;6.474;2022-09-30T06:18:21;450.07;;;402.20;;
15788;SDS011;59075;50.670;6.474;2022-09-30T06:20:48;430.43;;;383.10;;
15788;SDS011;59075;50.670;6.474;2022-09-30T06:23:15;440.87;;;393.07;;
15788;SDS011;59075;50.670;6.474;2022-09-30T06:25:41;432.57;;;385.03;;
15788;SDS011;59075;50.670;6.474;2022-09-30T06:28:10;444.87;;;397.30;;
15788;SDS011;59075;50.670;6.474;2022-09-30T06:30:38;440.13;;;392.30;;
15788;SDS011;59075;50.670;6.474;2022-09-30T06:33:05;430.53;;;383.07;;
15788;SDS011;59075;50.670;6.474;2022-09-30T06:35:31;436.20;;;387.77;;
15788;SDS011;59075;50.670;6.474;2022-09-30T06:37:58;443.93;;;395.23;;
15788;SDS011;59075;50.670;6.474;2022-09-30T06:40:24;436.17;;;388.10;;
15788;SDS011;59075;50.670;6.474;2022-09-30T06:42:56;441.37;;;393.80;;
15788;SDS011;59075;50.670;6.474;2022-09-30T06:45:25;446.33;;;397.83;;
15788;SDS011;59075;50.670;6.474;2022-09-30T06:47:54;437.03;;;389.13;;
15788;SDS011;59075;50.670;6.474;2022-09-30T06:50:22;449.00;;;401.00;;
15788;SDS011;59075;50.670;6.474;2022-09-30T06:52:48;451.57;;;403.53;;
15788;SDS011;59075;50.670;6.474;2022-09-30T06:55:16;450.80;;;402.90;;
15788;SDS011;59075;50.670;6.474;2022-09-30T06:57:44;439.07;;;391.53;;
15788;SDS011;59075;50.670;6.474;2022-09-30T07:00:12;444.70;;;396.53;;
15788;SDS011;59075;50.670;6.474;2022-09-30T07:02:42;450.53;;;402.43;;
15788;SDS011;59075;50.670;6.474;2022-09-30T07:05:09;447.87;;;399.90;;
15788;SDS011;59075;50.670;6.474;2022-09-30T07:07:35;431.40;;;383.83;;
15788;SDS011;59075;50.670;6.474;2022-09-30T07:10:03;446.20;;;398.17;;
15788;SDS011;59075;50.670;6.474;2022-09-30T07:12:30;447.70;;;399.50;;
15788;SDS011;59075;50.670;6.474;2022-09-30T07:14:56;439.30;;;391.13;;
15788;SDS011;59075;50.670;6.474;2022-09-30T07:17:24;446.83;;;398.30;;
15788;SDS011;59075;50.670;6.474;2022-09-30T07:19:52;445.93;;;397.73;;
15788;SDS011;59075;50.670;6.474;2022-09-30T07:22:19;437.20;;;389.63;;
15788;SDS011;59075;50.670;6.474;2022-09-30T07:24:56;452.90;;;404.53;;
15788;SDS011;59075;50.670;6.474;2022-09-30T07:27:24;435.23;;;387.50;;
15788;SDS011;59075;50.670;6.474;2022-09-30T07:29:51;453.47;;;404.87;;
15788;SDS011;59075;50.670;6.474;2022-09-30T07:32:19;456.53;;;408.13;;
15788;SDS011;59075;50.670;6.474;2022-09-30T07:34:46;443.13;;;395.23;;
15788;SDS011;59075;50.670;6.474;2022-09-30T07:37:15;457.17;;;408.23;;
15788;SDS011;59075;50.670;6.474;2022-09-30T07:39:44;441.00;;;392.70;;
15788;SDS011;59075;50.670;6.474;2022-09-30T07:42:13;456.83;;;408.27;;
15788;SDS011;59075;50.670;6.474;2022-09-30T07:44:44;461.00;;;412.63;;
15788;SDS011;59075;50.670;6.474;2022-09-30T07:47:10;452.70;;;404.37;;
15788;SDS011;59075;50.670;6.474;2022-09-30T07:49:39;452.03;;;403.63;;
15788;SDS011;59075;50.670;6.474;2022-09-30T07:52:06;471.50;;;422.80;;
15788;SDS011;59075;50.670;6.474;2022-09-30T07:54:34;474.30;;;425.43;;
15788;SDS011;59075;50.670;6.474;2022-09-30T07:57:02;455.50;;;407.23;;
15788;SDS011;59075;50.670;6.474;2022-09-30T07:59:29;460.23;;;411.73;;
15788;SDS011;59075;50.670;6.474;2022-09-30T08:01:57;463.80;;;415.20;;
15788;SDS011;59075;50.670;6.474;2022-09-30T08:04:25;470.03;;;421.07;;
15788;SDS011;59075;50.670;6.474;2022-09-30T08:06:53;470.30;;;421.87;;
15788;SDS011;59075;50.670;6.474;2022-09-30T08:09:21;472.97;;;424.33;;
15788;SDS011;59075;50.670;6.474;2022-09-30T08:11:50;487.83;;;438.87;;
15788;SDS011;59075;50.670;6.474;2022-09-30T08:14:18;475.03;;;426.17;;
15788;SDS011;59075;50.670;6.474;2022-09-30T08:16:46;494.80;;;445.80;;
15788;SDS011;59075;50.670;6.474;2022-09-30T08:19:14;487.83;;;438.07;;
15788;SDS011;59075;50.670;6.474;2022-09-30T08:21:41;486.23;;;437.10;;
15788;SDS011;59075;50.670;6.474;2022-09-30T08:24:09;491.03;;;441.83;;
15788;SDS011;59075;50.670;6.474;2022-09-30T08:26:36;504.80;;;454.77;;
15788;SDS011;59075;50.670;6.474;2022-09-30T08:29:05;498.23;;;449.00;;
15788;SDS011;59075;50.670;6.474;2022-09-30T08:31:32;512.87;;;463.07;;
15788;SDS011;59075;50.670;6.474;2022-09-30T08:33:59;511.10;;;461.53;;
15788;SDS011;59075;50.670;6.474;2022-09-30T08:36:27;503.00;;;453.47;;
15788;SDS011;59075;50.670;6.474;2022-09-30T08:38:54;500.03;;;450.93;;
15788;SDS011;59075;50.670;6.474;2022-09-30T08:41:28;496.80;;;447.67;;
15788;SDS011;59075;50.670;6.474;2022-09-30T08:44:11;497.73;;;448.63;;
15788;SDS011;59075;50.670;6.474;2022-09-30T08:46:52;497.57;;;448.37;;
15788;SDS011;59075;50.670;6.474;2022-09-30T08:49:27;487.97;;;438.73;;
15788;SDS011;59075;50.670;6.474;2022-09-30T08:52:02;500.10;;;450.50;;
15788;SDS011;59075;50.670;6.474;2022-09-30T08:54:34;500.10;;;450.47;;
15788;SDS011;59075;50.670;6.474;2022-09-30T08:57:02;516.47;;;466.67;;
15788;SDS011;59075;50.670;6.474;2022-09-30T08:59:31;514.63;;;464.77;;
15788;SDS011;59075;50.670;6.474;2022-09-30T09:02:01;524.83;;;474.37;;
15788;SDS011;59075;50.670;6.474;2022-09-30T09:04:40;514.17;;;464.60;;
15788;SDS011;59075;50.670;6.474;2022-09-30T09:07:08;511.77;;;461.97;;
15788;SDS011;59075;50.670;6.474;2022-09-30T09:09:49;533.47;;;483.00;;
15788;SDS011;59075;50.670;6.474;2022-09-30T09:12:26;515.33;;;465.83;;
15788;SDS011;59075;50.670;6.474;2022-09-30T09:15:06;532.00;;;481.80;;
15788;SDS011;59075;50.670;6.474;2022-09-30T09:17:49;527.83;;;477.63;;
15788;SDS011;59075;50.670;6.474;2022-09-30T09:20:19;518.17;;;468.27;;
15788;SDS011;59075;50.670;6.474;2022-09-30T09:22:48;537.10;;;486.80;;
15788;SDS011;59075;50.670;6.474;2022-09-30T09:25:17;530.40;;;480.23;;
15788;SDS011;59075;50.670;6.474;2022-09-30T09:27:48;554.73;;;503.97;;
15788;SDS011;59075;50.670;6.474;2022-09-30T09:30:20;537.33;;;486.80;;
15788;SDS011;59075;50.670;6.474;2022-09-30T09:32:49;553.00;;;502.30;;
15788;SDS011;59075;50.670;6.474;2022-09-30T09:35:25;547.80;;;497.10;;
15788;SDS011;59075;50.670;6.474;2022-09-30T09:38:05;553.33;;;502.63;;
15788;SDS011;59075;50.670;6.474;2022-09-30T09:41:10;554.93;;;504.00;;
15788;SDS011;59075;50.670;6.474;2022-09-30T09:43:49;565.87;;;514.53;;
15788;SDS011;59075;50.670;6.474;2022-09-30T09:46:25;560.50;;;508.80;;
15788;SDS011;59075;50.670;6.474;2022-09-30T09:52:00;557.90;;;506.47;;
15788;SDS011;59075;50.670;6.474;2022-09-30T09:54:42;558.90;;;507.77;;
15788;SDS011;59075;50.670;6.474;2022-09-30T09:57:10;572.50;;;520.50;;
15788;SDS011;59075;50.670;6.474;2022-09-30T09:59:52;573.43;;;521.03;;
15788;SDS011;59075;50.670;6.474;2022-09-30T10:02:22;576.03;;;524.10;;
15788;SDS011;59075;50.670;6.474;2022-09-30T10:04:50;583.37;;;531.40;;
15788;SDS011;59075;50.670;6.474;2022-09-30T10:07:24;573.13;;;521.73;;
15788;SDS011;59075;50.670;6.474;2022-09-30T10:09:51;579.67;;;527.77;;
15788;SDS011;59075;50.670;6.474;2022-09-30T10:12:32;584.67;;;532.67;;
15788;SDS011;59075;50.670;6.474;2022-09-30T10:17:50;580.43;;;527.87;;
15788;SDS011;59075;50.670;6.474;2022-09-30T10:20:21;587.53;;;535.20;;
15788;SDS011;59075;50.670;6.474;2022-09-30T10:23:01;601.87;;;549.13;;
15788;SDS011;59075;50.670;6.474;2022-09-30T10:25:29;596.53;;;544.63;;
15788;SDS011;59075;50.670;6.474;2022-09-30T10:27:57;601.20;;;549.03;;
15788;SDS011;59075;50.670;6.474;2022-09-30T10:30:29;594.20;;;542.03;;
15788;SDS011;59075;50.670;6.474;2022-09-30T10:33:02;599.67;;;547.37;;
15788;SDS011;59075;50.670;6.474;2022-09-30T10:35:46;607.70;;;555.27;;
15788;SDS011;59075;50.670;6.474;2022-09-30T10:38:17;613.93;;;560.97;;
15788;SDS011;59075;50.670;6.474;2022-09-30T10:40:45;606.03;;;553.47;;
15788;SDS011;59075;50.670;6.474;2022-09-30T10:43:19;622.80;;;570.23;;
15788;SDS011;59075;50.670;6.474;2022-09-30T10:45:48;612.67;;;560.10;;
15788;SDS011;59075;50.670;6.474;2022-09-30T10:48:17;615.67;;;563.10;;
15788;SDS011;59075;50.670;6.474;2022-09-30T10:50:51;624.53;;;571.67;;
15788;SDS011;59075;50.670;6.474;2022-09-30T10:53:20;608.57;;;556.40;;
15788;SDS011;59075;50.670;6.474;2022-09-30T10:55:48;617.60;;;565.13;;
15788;SDS011;59075;50.670;6.474;2022-09-30T10:58:20;617.23;;;564.57;;
15788;SDS011;59075;50.670;6.474;2022-09-30T11:00:49;632.90;;;579.87;;
15788;SDS011;59075;50.670;6.474;2022-09-30T11:03:26;630.40;;;577.93;;
15788;SDS011;59075;50.670;6.474;2022-09-30T11:05:56;630.67;;;577.83;;
15788;SDS011;59075;50.670;6.474;2022-09-30T11:08:27;626.60;;;574.20;;
15788;SDS011;59075;50.670;6.474;2022-09-30T11:10:59;624.43;;;571.93;;
15788;SDS011;59075;50.670;6.474;2022-09-30T11:13:35;633.33;;;580.00;;
15788;SDS011;59075;50.670;6.474;2022-09-30T11:16:04;649.10;;;595.90;;
15788;SDS011;59075;50.670;6.474;2022-09-30T11:18:36;643.17;;;589.77;;
15788;SDS011;59075;50.670;6.474;2022-09-30T11:21:05;631.63;;;578.27;;
15788;SDS011;59075;50.670;6.474;2022-09-30T11:23:39;632.20;;;578.93;;
15788;SDS011;59075;50.670;6.474;2022-09-30T11:26:11;662.07;;;607.57;;
15788;SDS011;59075;50.670;6.474;2022-09-30T11:28:47;642.77;;;589.27;;
15788;SDS011;59075;50.670;6.474;2022-09-30T11:31:25;650.37;;;596.57;;
15788;SDS011;59075;50.670;6.474;2022-09-30T11:34:14;645.00;;;591.50;;
15788;SDS011;59075;50.670;6.474;2022-09-30T11:36:51;646.57;;;593.17;;
15788;SDS011;59075;50.670;6.474;2022-09-30T11:42:14;646.83;;;593.63;;
15788;SDS011;59075;50.670;6.474;2022-09-30T11:44:50;645.07;;;591.67;;
15788;SDS011;59075;50.670;6.474;2022-09-30T11:47:26;641.13;;;587.80;;
15788;SDS011;59075;50.670;6.474;2022-09-30T11:50:09;652.20;;;598.67;;
15788;SDS011;59075;50.670;6.474;2022-09-30T11:52:52;642.97;;;589.67;;
15788;SDS011;59075;50.670;6.474;2022-09-30T11:55:31;644.43;;;590.93;;
15788;SDS011;59075;50.670;6.474;2022-09-30T11:58:04;650.63;;;597.17;;
15788;SDS011;59075;50.670;6.474;2022-09-30T12:00:34;656.87;;;603.37;;
15788;SDS011;59075;50.670;6.474;2022-09-30T12:03:04;655.80;;;602.30;;
15788;SDS011;59075;50.670;6.474;2022-09-30T12:05:36;663.50;;;610.07;;
15788;SDS011;59075;50.670;6.474;2022-09-30T12:08:09;660.27;;;606.53;;
15788;SDS011;59075;50.670;6.474;2022-09-30T12:10:38;662.10;;;608.13;;
15788;SDS011;59075;50.670;6.474;2022-09-30T12:13:09;669.90;;;615.63;;
15788;SDS011;59075;50.670;6.474;2022-09-30T12:15:37;671.43;;;617.13;;
15788;SDS011;59075;50.670;6.474;2022-09-30T12:18:08;650.37;;;597.00;;
15788;SDS011;59075;50.670;6.474;2022-09-30T12:20:40;654.73;;;601.20;;
15788;SDS011;59075;50.670;6.474;2022-09-30T12:23:10;650.33;;;596.67;;
15788;SDS011;59075;50.670;6.474;2022-09-30T12:25:42;657.87;;;604.07;;
15788;SDS011;59075;50.670;6.474;2022-09-30T12:28:16;660.77;;;607.40;;
15788;SDS011;59075;50.670;6.474;2022-09-30T12:31:09;644.60;;;591.33;;
15788;SDS011;59075;50.670;6.474;2022-09-30T12:33:44;645.57;;;592.50;;
15788;SDS011;59075;50.670;6.474;2022-09-30T12:36:28;653.27;;;599.83;;
15788;SDS011;59075;50.670;6.474;2022-09-30T12:39:18;647.93;;;594.93;;
15788;SDS011;59075;50.670;6.474;2022-09-30T12:42:04;656.83;;;603.57;;
15788;SDS011;59075;50.670;6.474;2022-09-30T12:45:02;641.93;;;588.77;;
15788;SDS011;59075;50.670;6.474;2022-09-30T12:47:33;645.00;;;592.17;;
15788;SDS011;59075;50.670;6.474;2022-09-30T12:50:10;667.10;;;613.07;;
15788;SDS011;59075;50.670;6.474;2022-09-30T12:52:41;655.10;;;601.57;;
15788;SDS011;59075;50.670;6.474;2022-09-30T12:55:13;665.83;;;612.17;;
15788;SDS011;59075;50.670;6.474;2022-09-30T12:57:46;666.30;;;612.60;;
15788;SDS011;59075;50.670;6.474;2022-09-30T13:00:14;670.63;;;616.97;;
15788;SDS011;59075;50.670;6.474;2022-09-30T13:02:43;668.00;;;614.13;;
15788;SDS011;59075;50.670;6.474;2022-09-30T13:08:24;662.17;;;608.60;;
15788;SDS011;59075;50.670;6.474;2022-09-30T13:10:58;661.00;;;607.17;;
15788;SDS011;59075;50.670;6.474;2022-09-30T13:13:30;652.60;;;599.40;;
15788;SDS011;59075;50.670;6.474;2022-09-30T13:16:01;662.43;;;608.93;;
15788;SDS011;59075;50.670;6.474;2022-09-30T13:21:27;660.10;;;606.43;;
15788;SDS011;59075;50.670;6.474;2022-09-30T13:23:56;666.20;;;612.63;;
15788;SDS011;59075;50.670;6.474;2022-09-30T13:29:46;653.87;;;600.37;;
15788;SDS011;59075;50.670;6.474;2022-09-30T13:32:29;671.53;;;617.40;;
15788;SDS011;59075;50.670;6.474;2022-09-30T13:34:58;664.93;;;611.23;;
15788;SDS011;59075;50.670;6.474;2022-09-30T13:37:30;667.53;;;613.63;;
15788;SDS011;59075;50.670;6.474;2022-09-30T13:40:01;655.40;;;601.90;;
15788;SDS011;59075;50.670;6.474;2022-09-30T13:42:31;675.03;;;620.90;;
15788;SDS011;59075;50.670;6.474;2022-09-30T13:45:09;676.30;;;622.30;;
15788;SDS011;59075;50.670;6.474;2022-09-30T13:47:42;670.13;;;616.40;;
15788;SDS011;59075;50.670;6.474;2022-09-30T13:50:12;655.83;;;602.67;;
15788;SDS011;59075;50.670;6.474;2022-09-30T13:52:42;667.10;;;613.73;;
15788;SDS011;59075;50.670;6.474;2022-09-30T13:55:16;667.03;;;613.30;;
15788;SDS011;59075;50.670;6.474;2022-09-30T13:57:48;670.67;;;617.17;;
15788;SDS011;59075;50.670;6.474;2022-09-30T14:00:28;672.33;;;618.77;;
15788;SDS011;59075;50.670;6.474;2022-09-30T14:03:20;667.10;;;613.93;;
15788;SDS011;59075;50.670;6.474;2022-09-30T14:06:13;677.83;;;622.83;;
15788;SDS011;59075;50.670;6.474;2022-09-30T14:11:45;661.30;;;608.10;;
15788;SDS011;59075;50.670;6.474;2022-09-30T14:14:50;663.53;;;610.33;;
15788;SDS011;59075;50.670;6.474;2022-09-30T14:17:38;659.00;;;605.90;;
15788;SDS011;59075;50.670;6.474;2022-09-30T14:20:24;666.37;;;613.17;;
15788;SDS011;59075;50.670;6.474;2022-09-30T14:22:59;667.50;;;613.90;;
15788;SDS011;59075;50.670;6.474;2022-09-30T14:25:28;674.57;;;621.03;;
15788;SDS011;59075;50.670;6.474;2022-09-30T14:28:02;663.43;;;610.03;;
15788;SDS011;59075;50.670;6.474;2022-09-30T14:30:31;670.77;;;617.47;;
15788;SDS011;59075;50.670;6.474;2022-09-30T14:33:07;681.87;;;628.13;;
15788;SDS011;59075;50.670;6.474;2022-09-30T14:35:35;666.80;;;613.63;;
15788;SDS011;59075;50.670;6.474;2022-09-30T14:38:06;677.60;;;623.83;;
15788;SDS011;59075;50.670;6.474;2022-09-30T14:40:34;673.53;;;619.77;;
15788;SDS011;59075;50.670;6.474;2022-09-30T14:43:05;680.23;;;625.93;;
15788;SDS011;59075;50.670;6.474;2022-09-30T14:45:37;669.03;;;615.60;;
15788;SDS011;59075;50.670;6.474;2022-09-30T14:48:08;669.70;;;616.07;;
15788;SDS011;59075;50.670;6.474;2022-09-30T14:50:41;675.23;;;621.80;;
15788;SDS011;59075;50.670;6.474;2022-09-30T14:53:22;672.07;;;618.57;;
15788;SDS011;59075;50.670;6.474;2022-09-30T14:55:50;681.53;;;627.80;;
15788;SDS011;59075;50.670;6.474;2022-09-30T14:58:20;680.03;;;625.90;;
15788;SDS011;59075;50.670;6.474;2022-09-30T15:00:55;666.00;;;612.63;;
15788;SDS011;59075;50.670;6.474;2022-09-30T15:03:26;685.50;;;631.47;;
15788;SDS011;59075;50.670;6.474;2022-09-30T15:05:54;682.83;;;629.13;;
15788;SDS011;59075;50.670;6.474;2022-09-30T15:08:22;705.67;;;650.90;;
15788;SDS011;59075;50.670;6.474;2022-09-30T15:10:50;677.37;;;623.73;;
15788;SDS011;59075;50.670;6.474;2022-09-30T15:13:20;687.33;;;633.43;;
15788;SDS011;59075;50.670;6.474;2022-09-30T15:15:49;662.20;;;608.90;;
15788;SDS011;59075;50.670;6.474;2022-09-30T15:21:09;672.70;;;619.20;;
15788;SDS011;59075;50.670;6.474;2022-09-30T15:23:40;681.87;;;628.20;;
15788;SDS011;59075;50.670;6.474;2022-09-30T15:26:09;692.03;;;636.87;;
15788;SDS011;59075;50.670;6.474;2022-09-30T15:28:39;671.10;;;617.60;;
15788;SDS011;59075;50.670;6.474;2022-09-30T15:31:06;683.70;;;629.97;;
15788;SDS011;59075;50.670;6.474;2022-09-30T15:33:43;676.87;;;623.30;;
15788;SDS011;59075;50.670;6.474;2022-09-30T15:36:11;706.93;;;652.20;;
15788;SDS011;59075;50.670;6.474;2022-09-30T15:38:44;672.87;;;619.37;;
15788;SDS011;59075;50.670;6.474;2022-09-30T15:41:15;676.80;;;623.30;;
15788;SDS011;59075;50.670;6.474;2022-09-30T15:43:45;675.47;;;621.93;;
15788;SDS011;59075;50.670;6.474;2022-09-30T15:46:16;699.13;;;644.13;;
15788;SDS011;59075;50.670;6.474;2022-09-30T15:48:52;678.17;;;624.70;;
15788;SDS011;59075;50.670;6.474;2022-09-30T15:51:21;672.83;;;619.50;;
15788;SDS011;59075;50.670;6.474;2022-09-30T15:53:50;667.97;;;614.57;;
15788;SDS011;59075;50.670;6.474;2022-09-30T15:56:21;710.83;;;655.13;;
15788;SDS011;59075;50.670;6.474;2022-09-30T15:58:55;683.87;;;630.13;;
15788;SDS011;59075;50.670;6.474;2022-09-30T16:01:23;690.53;;;636.40;;
15788;SDS011;59075;50.670;6.474;2022-09-30T16:03:52;679.67;;;625.40;;
15788;SDS011;59075;50.670;6.474;2022-09-30T16:06:25;690.10;;;635.23;;
15788;SDS011;59075;50.670;6.474;2022-09-30T16:12:22;665.93;;;612.60;;
15788;SDS011;59075;50.670;6.474;2022-09-30T16:14:53;670.80;;;617.27;;
15788;SDS011;59075;50.670;6.474;2022-09-30T16:17:24;678.47;;;624.97;;
15788;SDS011;59075;50.670;6.474;2022-09-30T16:19:53;674.57;;;621.20;;
15788;SDS011;59075;50.670;6.474;2022-09-30T16:25:12;666.70;;;613.60;;
15788;SDS011;59075;50.670;6.474;2022-09-30T16:27:43;663.50;;;610.50;;
15788;SDS011;59075;50.670;6.474;2022-09-30T16:30:13;670.43;;;617.17;;
15788;SDS011;59075;50.670;6.474;2022-09-30T16:32:44;664.07;;;610.93;;
15788;SDS011;59075;50.670;6.474;2022-09-30T16:35:15;667.67;;;614.57;;
15788;SDS011;59075;50.670;6.474;2022-09-30T16:37:44;677.17;;;623.77;;
15788;SDS011;59075;50.670;6.474;2022-09-30T16:40:16;668.97;;;615.53;;
15788;SDS011;59075;50.670;6.474;2022-09-30T16:42:45;670.97;;;617.80;;
15788;SDS011;59075;50.670;6.474;2022-09-30T16:45:13;662.00;;;608.70;;
15788;SDS011;59075;50.670;6.474;2022-09-30T16:47:40;671.60;;;618.27;;
15788;SDS011;59075;50.670;6.474;2022-09-30T16:50:11;672.60;;;619.20;;
15788;SDS011;59075;50.670;6.474;2022-09-30T16:52:42;666.50;;;612.93;;
15788;SDS011;59075;50.670;6.474;2022-09-30T16:55:09;659.37;;;605.80;;
15788;SDS011;59075;50.670;6.474;2022-09-30T16:57:36;670.77;;;617.23;;
15788;SDS011;59075;50.670;6.474;2022-09-30T17:00:05;661.37;;;608.50;;
15788;SDS011;59075;50.670;6.474;2022-09-30T17:02:33;671.50;;;617.80;;
15788;SDS011;59075;50.670;6.474;2022-09-30T17:05:01;665.07;;;612.03;;
15788;SDS011;59075;50.670;6.474;2022-09-30T17:07:29;662.03;;;609.00;;
15788;SDS011;59075;50.670;6.474;2022-09-30T17:09:55;665.40;;;612.13;;
15788;SDS011;59075;50.670;6.474;2022-09-30T17:12:22;656.97;;;604.10;;
15788;SDS011;59075;50.670;6.474;2022-09-30T17:14:51;654.37;;;601.70;;
15788;SDS011;59075;50.670;6.474;2022-09-30T17:17:20;662.17;;;609.10;;
15788;SDS011;59075;50.670;6.474;2022-09-30T17:19:49;654.87;;;602.03;;
15788;SDS011;59075;50.670;6.474;2022-09-30T17:22:15;653.87;;;601.17;;
15788;SDS011;59075;50.670;6.474;2022-09-30T17:24:42;652.60;;;599.77;;
15788;SDS011;59075;50.670;6.474;2022-09-30T17:27:09;660.13;;;607.07;;
15788;SDS011;59075;50.670;6.474;2022-09-30T17:29:35;661.30;;;608.07;;
15788;SDS011;59075;50.670;6.474;2022-09-30T17:32:02;651.23;;;598.57;;
15788;SDS011;59075;50.670;6.474;2022-09-30T17:34:29;656.27;;;603.37;;
15788;SDS011;59075;50.670;6.474;2022-09-30T17:36:57;650.93;;;598.13;;
15788;SDS011;59075;50.670;6.474;2022-09-30T17:39:24;652.63;;;600.03;;
15788;SDS011;59075;50.670;6.474;2022-09-30T17:41:52;654.67;;;601.77;;
15788;SDS011;59075;50.670;6.474;2022-09-30T17:44:36;644.77;;;592.17;;
15788;SDS011;59075;50.670;6.474;2022-09-30T17:47:04;658.93;;;605.83;;
15788;SDS011;59075;50.670;6.474;2022-09-30T17:49:31;650.77;;;598.10;;
15788;SDS011;59075;50.670;6.474;2022-09-30T17:52:00;657.50;;;604.40;;
15788;SDS011;59075;50.670;6.474;2022-09-30T17:54:27;662.70;;;609.70;;
15788;SDS011;59075;50.670;6.474;2022-09-30T17:56:54;656.60;;;603.67;;
15788;SDS011;59075;50.670;6.474;2022-09-30T17:59:22;637.83;;;585.00;;
15788;SDS011;59075;50.670;6.474;2022-09-30T18:01:50;635.30;;;582.87;;
15788;SDS011;59075;50.670;6.474;2022-09-30T18:04:20;657.73;;;604.63;;
15788;SDS011;59075;50.670;6.474;2022-09-30T18:06:47;643.90;;;591.33;;
15788;SDS011;59075;50.670;6.474;2022-09-30T18:09:15;663.90;;;610.57;;
15788;SDS011;59075;50.670;6.474;2022-09-30T18:11:42;654.90;;;601.90;;
15788;SDS011;59075;50.670;6.474;2022-09-30T18:14:09;639.70;;;587.03;;
15788;SDS011;59075;50.670;6.474;2022-09-30T18:16:36;655.40;;;602.17;;
15788;SDS011;59075;50.670;6.474;2022-09-30T18:19:03;655.17;;;602.13;;
15788;SDS011;59075;50.670;6.474;2022-09-30T18:21:32;642.83;;;590.07;;
15788;SDS011;59075;50.670;6.474;2022-09-30T18:23:59;651.93;;;598.97;;
15788;SDS011;59075;50.670;6.474;2022-09-30T18:26:29;644.80;;;592.37;;
15788;SDS011;59075;50.670;6.474;2022-09-30T18:28:56;644.70;;;592.20;;
15788;SDS011;59075;50.670;6.474;2022-09-30T18:31:24;660.03;;;606.90;;
15788;SDS011;59075;50.670;6.474;2022-09-30T18:33:58;648.83;;;596.10;;
15788;SDS011;59075;50.670;6.474;2022-09-30T18:36:25;648.17;;;595.07;;
15788;SDS011;59075;50.670;6.474;2022-09-30T18:38:53;643.40;;;590.53;;
15788;SDS011;59075;50.670;6.474;2022-09-30T18:41:22;664.97;;;611.70;;
15788;SDS011;59075;50.670;6.474;2022-09-30T18:43:50;626.37;;;574.10;;
15788;SDS011;59075;50.670;6.474;2022-09-30T18:46:23;638.50;;;585.17;;
15788;SDS011;59075;50.670;6.474;2022-09-30T18:48:50;631.63;;;579.33;;
15788;SDS011;59075;50.670;6.474;2022-09-30T18:51:18;635.13;;;582.60;;
15788;SDS011;59075;50.670;6.474;2022-09-30T18:53:45;637.47;;;584.70;;
15788;SDS011;59075;50.670;6.474;2022-09-30T18:56:19;630.53;;;576.93;;
15788;SDS011;59075;50.670;6.474;2022-09-30T18:58:47;632.10;;;579.63;;
15788;SDS011;59075;50.670;6.474;2022-09-30T19:01:15;633.13;;;580.60;;
15788;SDS011;59075;50.670;6.474;2022-09-30T19:03:42;649.97;;;596.77;;
15788;SDS011;59075;50.670;6.474;2022-09-30T19:06:08;649.40;;;595.33;;
15788;SDS011;59075;50.670;6.474;2022-09-30T19:08:35;626.13;;;574.17;;
15788;SDS011;59075;50.670;6.474;2022-09-30T19:11:05;626.53;;;574.37;;
15788;SDS011;59075;50.670;6.474;2022-09-30T19:13:36;625.27;;;573.43;;
15788;SDS011;59075;50.670;6.474;2022-09-30T19:16:04;630.03;;;577.47;;
15788;SDS011;59075;50.670;6.474;2022-09-30T19:18:32;625.20;;;573.37;;
15788;SDS011;59075;50.670;6.474;2022-09-30T19:21:02;632.37;;;580.03;;
15788;SDS011;59075;50.670;6.474;2022-09-30T19:23:30;636.63;;;583.93;;
15788;SDS011;59075;50.670;6.474;2022-09-30T19:25:57;634.73;;;582.07;;
15788;SDS011;59075;50.670;6.474;2022-09-30T19:28:23;626.27;;;573.87;;
15788;SDS011;59075;50.670;6.474;2022-09-30T19:30:50;637.73;;;585.57;;
15788;SDS011;59075;50.670;6.474;2022-09-30T19:33:17;643.10;;;590.67;;
15788;SDS011;59075;50.670;6.474;2022-09-30T19:35:46;617.77;;;565.97;;
15788;SDS011;59075;50.670;6.474;2022-09-30T19:38:13;625.37;;;572.80;;
15788;SDS011;59075;50.670;6.474;2022-09-30T19:40:40;628.50;;;576.13;;
15788;SDS011;59075;50.670;6.474;2022-09-30T19:43:07;645.30;;;592.60;;
15788;SDS011;59075;50.670;6.474;2022-09-30T19:45:34;629.17;;;576.93;;
15788;SDS011;59075;50.670;6.474;2022-09-30T19:48:01;637.60;;;585.30;;